Gardabya Airport


Codes: HLGD/SRX
Name: Gardabya Airport
City: Sirt
Country: Libya
Elevation: 267 ft.
Wikipedia:

Photos at Gardabya Airport


   Photos courtesy of SpottingLog. You can add your own sightings and photos by signing up for a free trial today.



No photos found.

Weather at Gardabya Airport


Time (UTC)DescriptionTempratureWindCloud coverageVisibilityPressureHumidity
18-Apr-2024 00:00Clear Sky16°C2 mph, NE0%10000m1015hPa74%
18-Apr-2024 03:00Clear Sky16°C4 mph, NE0%10000m1015hPa73%
18-Apr-2024 06:00Clear Sky17°C7 mph, SE0%10000m1016hPa61%
18-Apr-2024 09:00Clear Sky25°C7 mph, S0%10000m1015hPa30%
18-Apr-2024 12:00Clear Sky30°C7 mph, NW0%10000m1013hPa20%
18-Apr-2024 15:00Clear Sky29°C13 mph, NE0%10000m1011hPa28%
18-Apr-2024 18:00Clear Sky24°C13 mph, E0%10000m1012hPa40%
18-Apr-2024 21:00Clear Sky24°C18 mph, SE0%10000m1011hPa33%
19-Apr-2024 00:00Clear Sky24°C18 mph, S0%10000m1010hPa28%
19-Apr-2024 03:00Few Clouds23°C11 mph, SW11%10000m1009hPa30%
19-Apr-2024 06:00Few Clouds23°C9 mph, SW20%10000m1010hPa25%
19-Apr-2024 09:00Clear Sky26°C18 mph, W4%10000m1011hPa41%
19-Apr-2024 12:00Clear Sky22°C22 mph, NW3%10000m1013hPa58%
19-Apr-2024 15:00Overcast Clouds19°C27 mph, N95%10000m1013hPa64%
19-Apr-2024 18:00Overcast Clouds17°C20 mph, N98%10000m1015hPa67%
19-Apr-2024 21:00Overcast Clouds16°C16 mph, NW88%10000m1017hPa63%
20-Apr-2024 00:00Overcast Clouds16°C11 mph, NW91%10000m1016hPa63%
20-Apr-2024 03:00Scattered Clouds14°C9 mph, NW45%10000m1016hPa68%
20-Apr-2024 06:00Few Clouds16°C9 mph, NW24%10000m1016hPa61%
20-Apr-2024 09:00Clear Sky19°C7 mph, NW2%10000m1017hPa48%
20-Apr-2024 12:00Clear Sky21°C11 mph, N1%10000m1016hPa41%
20-Apr-2024 15:00Clear Sky20°C11 mph, NE5%10000m1015hPa47%
20-Apr-2024 18:00Scattered Clouds17°C11 mph, NE34%10000m1015hPa62%
20-Apr-2024 21:00Overcast Clouds16°C11 mph, E98%10000m1015hPa67%
21-Apr-2024 00:00Broken Clouds15°C11 mph, SE82%10000m1013hPa73%
21-Apr-2024 03:00Scattered Clouds14°C11 mph, SE43%10000m1012hPa73%
21-Apr-2024 06:00Scattered Clouds16°C16 mph, SE32%10000m1011hPa61%
21-Apr-2024 09:00Overcast Clouds24°C13 mph, SE100%10000m1012hPa33%
21-Apr-2024 12:00Overcast Clouds29°C16 mph, SE100%10000m1008hPa24%
21-Apr-2024 15:00Overcast Clouds24°C29 mph, NE100%10000m1006hPa41%
21-Apr-2024 18:00Overcast Clouds20°C27 mph, E100%10000m1005hPa60%
21-Apr-2024 21:00Overcast Clouds20°C25 mph, E100%10000m1005hPa62%
22-Apr-2024 00:00Overcast Clouds21°C16 mph, E100%10000m1002hPa45%
22-Apr-2024 03:00Overcast Clouds25°C13 mph, S100%10000m1001hPa18%
22-Apr-2024 06:00Overcast Clouds21°C11 mph, SW100%10000m1002hPa52%
22-Apr-2024 09:00Overcast Clouds27°C11 mph, W100%10000m1003hPa37%
22-Apr-2024 12:00Overcast Clouds30°C11 mph, NW100%10000m1002hPa31%
22-Apr-2024 15:00Overcast Clouds25°C13 mph, NW100%10000m1001hPa49%
22-Apr-2024 18:00Overcast Clouds20°C16 mph, NW100%10000m1002hPa74%
22-Apr-2024 21:00Overcast Clouds19°C13 mph, NW100%10000m1005hPa86%